Latest Weather Observations for Cape Borda

IDS60801

Issued at 6:01 pm CST Thursday 26 May 2016 (issued every 30 minutes, with the page automatically refreshed every 10 minutes)

About weather observations | Map of weather stations | Latest weather observations for SA | Other Formats
Station Details ID: 022823 Name: CAPE BORDA Lat: -35.75 Lon: 136.60 Height: 158.0 m
Data from the previous 72 hours. | See also: Recent months at Cape Borda
Date/Time
CST
Temp
°C
App
Temp
°C
Dew
Point
Rel
Hum
%
Delta-T
°C
Wind Press
QNH
hPa
Press
MSL
hPa
Rain
since 9 am
mm
Dir
 
Spd
km/h
Gust
km/h
Spd
kts
Gust
kts
26/06:00pm 13.5 9.3 7.4 66 3.0 W 19 28 10 15 1010.4 1010.3 0.8
26/05:30pm 13.3 9.3 8.1 71 2.6 WSW 19 26 10 14 1010.0 - 0.8
26/05:00pm 14.0 9.7 8.0 67 3.0 WSW 20 28 11 15 1010.0 - 0.8
26/04:30pm 14.1 9.7 8.8 70 2.7 W 22 30 12 16 1010.0 - 0.8
26/04:00pm 15.1 11.0 8.7 65 3.3 W 20 32 11 17 1009.7 - 0.8
26/03:30pm 15.1 11.2 8.7 65 3.3 WSW 19 28 10 15 1009.5 - 0.8
26/03:00pm 15.5 11.8 9.4 67 3.2 W 19 26 10 14 1009.4 1009.3 0.8
26/02:30pm 13.8 10.4 9.3 74 2.3 WSW 17 24 9 13 1009.3 - 0.8
26/02:00pm 15.0 11.1 9.4 69 2.9 W 20 26 11 14 1009.3 - 0.8
26/01:30pm 14.2 10.9 10.8 80 1.8 W 19 26 10 14 1009.4 - 0.8
26/01:00pm 14.4 10.7 9.6 73 2.5 W 19 22 10 12 1009.7 - 0.4
26/12:30pm 14.0 12.2 10.8 81 1.7 W 11 19 6 10 1009.8 - 0.4
26/12:00pm 15.0 11.9 9.0 67 3.1 W 15 20 8 11 1010.0 1009.9 0.0
26/11:30am 13.6 9.6 9.1 74 2.3 W 20 30 11 16 1010.3 - 0.0
26/11:00am 14.6 11.0 8.5 67 3.1 SW 17 24 9 13 1010.2 - 0.0
26/10:30am 13.6 10.1 8.7 72 2.5 SW 17 22 9 12 1010.2 - 0.0
26/10:00am 13.7 10.1 8.3 70 2.7 SW 17 22 9 12 1010.0 - 0.0
26/09:30am 13.7 9.6 8.8 72 2.5 SW 20 30 11 16 1009.8 - 0.0
26/09:00am 13.8 9.7 8.5 70 2.7 SW 20 30 11 16 1009.6 1009.5 14.8
26/08:30am 12.9 8.7 7.6 70 2.6 SW 19 26 10 14 1009.4 - 14.8
26/08:00am 11.8 7.6 7.5 75 2.1 SW 19 26 10 14 1009.2 - 14.8
26/07:30am 10.4 6.7 7.9 84 1.2 S 17 20 9 11 1009.1 - 14.8
26/07:00am 10.4 6.9 8.6 89 0.9 S 17 28 9 15 1009.0 - 14.8
26/06:30am 9.5 6.3 8.3 92 0.6 SSE 15 17 8 9 1008.9 - 14.8
26/06:00am 11.9 7.5 7.6 75 2.1 SW 20 30 11 16 1008.5 1008.4 14.8
26/05:30am 11.5 7.9 8.3 81 1.6 SW 17 26 9 14 1008.5 - 14.8
26/05:00am 10.2 6.6 8.4 89 0.9 SSW 17 20 9 11 1008.3 - 14.8
26/04:30am 10.4 6.2 8.2 86 1.1 SSW 20 30 11 16 1008.2 - 14.6
26/04:10am 11.5 6.2 9.7 89 0.9 SW 28 44 15 24 1008.3 - 14.4
26/04:00am 12.0 8.1 8.8 81 1.6 SSW 19 24 10 13 1008.1 - 14.0
26/03:30am 11.3 8.3 9.3 87 1.0 SW 15 20 8 11 1008.1 - 14.0
26/03:00am 10.8 8.3 9.8 93 0.5 SSW 13 17 7 9 1008.1 1008.0 14.0
26/02:30am 11.4 7.7 10.0 91 0.7 S 20 30 11 16 1008.0 - 14.0
26/02:00am 11.2 8.2 9.4 89 0.9 S 15 19 8 10 1007.8 - 14.0
26/01:30am 11.2 8.4 10.0 92 0.6 S 15 19 8 10 1007.6 - 14.0
26/01:00am 11.6 8.6 10.6 94 0.5 S 17 20 9 11 1007.6 - 14.0
26/12:30am 11.9 9.8 11.0 94 0.5 S 13 19 7 10 1007.6 - 13.8
26/12:00am 11.6 9.8 11.0 96 0.3 S 11 13 6 7 1007.7 1007.6 13.8
 
Date/Time
CST
Temp
°C
App
Temp
°C
Dew
Point
Rel
Hum
%
Delta-T
°C
Wind Press
QNH
hPa
Press
MSL
hPa
Rain
since 9 am
mm
Dir
 
Spd
km/h
Gust
km/h
Spd
kts
Gust
kts
25/11:30pm 11.0 9.1 10.6 97 0.2 SSE 11 13 6 7 1007.6 - 13.6
25/11:00pm 11.5 9.7 10.9 96 0.3 S 11 13 6 7 1007.5 - 13.6
25/10:30pm 11.2 9.7 10.6 96 0.3 SE 9 9 5 5 1007.8 - 13.6
25/10:00pm 11.3 9.8 10.7 96 0.3 ESE 9 13 5 7 1007.7 - 13.6
25/09:30pm 11.4 11.6 10.4 94 0.5 CALM 0 0 0 0 1007.7 - 10.0
25/09:00pm 10.9 9.8 10.1 95 0.4 S 6 7 3 4 1007.5 1007.4 10.0
25/08:30pm 10.5 8.4 9.9 96 0.3 SSE 11 13 6 7 1007.1 - 10.0
25/08:00pm 10.7 8.6 9.9 95 0.4 S 11 13 6 7 1006.8 - 10.0
25/07:30pm 11.1 9.2 10.5 96 0.3 SSE 11 13 6 7 1006.7 - 10.0
25/07:00pm 11.6 8.7 11.0 96 0.3 S 17 20 9 11 1006.5 - 10.0
25/06:30pm 11.8 9.8 11.4 97 0.2 S 13 20 7 11 1006.5 - 10.0
25/06:00pm 11.8 9.4 11.4 97 0.2 S 15 19 8 10 1006.1 1006.1 10.0
25/05:30pm 12.0 10.0 11.6 97 0.2 SSE 13 15 7 8 1006.1 - 10.0
25/05:00pm 13.1 11.8 12.4 95 0.4 S 11 15 6 8 1006.2 - 10.0
25/04:30pm 13.8 12.3 13.1 96 0.4 SSW 13 17 7 9 1006.4 - 10.0
25/04:00pm 13.4 11.5 12.9 97 0.3 SSE 15 24 8 13 1005.7 - 10.0
25/03:30pm 13.6 11.3 13.1 97 0.3 S 17 24 9 13 1005.3 - 10.0
25/03:00pm 13.9 11.7 13.2 96 0.4 SSE 17 20 9 11 1005.6 1005.6 10.0
25/02:30pm 12.8 10.7 12.4 97 0.2 S 15 20 8 11 1006.0 - 9.8
25/02:00pm 12.4 9.4 12.0 97 0.2 S 19 24 10 13 1005.6 - 7.8
25/01:30pm 12.7 9.6 12.3 97 0.2 S 20 26 11 14 1005.5 - 5.0
25/01:00pm 13.3 10.4 12.9 97 0.2 S 20 26 11 14 1005.8 - 4.8
25/12:30pm 14.2 10.5 13.8 97 0.2 NW 26 35 14 19 1006.1 - 3.4
25/12:00pm 14.3 11.0 13.9 97 0.2 NW 24 32 13 17 1006.5 1006.5 1.6
25/11:30am 14.2 11.1 13.5 96 0.4 NW 22 33 12 18 1007.2 - 1.4
25/11:00am 14.5 10.9 13.1 91 0.8 NNW 24 33 13 18 1007.7 - 0.6
25/10:30am 14.2 10.2 13.1 93 0.6 NNW 26 35 14 19 1007.9 - 0.6
25/10:00am 13.8 8.8 12.3 91 0.8 NNW 30 41 16 22 1008.3 - 0.6
25/09:30am 14.3 8.1 11.5 83 1.5 NNW 35 48 19 26 1008.2 - 0.0
25/09:00am 15.0 9.5 10.7 75 2.3 N 30 43 16 23 1008.4 1008.3 0.2
25/08:30am 15.2 9.7 10.7 74 2.4 N 30 43 16 23 1008.3 - 0.2
25/08:24am 15.1 9.3 10.8 75 2.3 N 32 50 17 27 1008.3 - 0.2
25/08:00am 15.1 9.2 10.4 73 2.5 N 32 43 17 23 1008.5 - 0.2
25/07:30am 15.0 9.7 11.1 77 2.1 N 30 44 16 24 1008.7 - 0.2
25/07:00am 14.5 9.0 11.9 84 1.4 N 32 46 17 25 1008.9 - 0.2
25/06:38am 14.7 9.3 12.3 85 1.3 N 32 52 17 28 1008.9 - 0.2
25/06:30am 14.7 9.3 12.7 88 1.1 N 33 48 18 26 1008.9 - 0.2
25/06:00am 15.1 10.5 12.4 84 1.5 N 28 41 15 22 1008.6 1008.5 0.0
25/05:30am 15.0 10.2 11.5 79 1.9 N 28 37 15 20 1008.6 - 0.0
25/05:00am 15.3 10.5 10.2 71 2.7 N 26 37 14 20 1008.7 - 0.0
25/04:30am 15.5 9.3 9.4 67 3.2 N 32 46 17 25 1008.7 - 0.0
25/04:10am 15.9 9.1 9.2 64 3.5 N 35 54 19 29 1008.9 - 0.0
25/04:00am 15.8 9.0 9.3 65 3.4 N 35 50 19 27 1008.8 - 0.0
25/03:48am 15.9 10.1 9.6 66 3.3 N 30 52 16 28 1009.1 - 0.0
25/03:30am 15.7 10.0 9.8 68 3.1 N 30 43 16 23 1009.4 - 0.0
25/03:12am 15.5 10.0 10.4 71 2.7 N 30 48 16 26 1009.8 - 0.0
25/03:00am 15.7 9.9 10.7 72 2.7 N 32 44 17 24 1009.9 1009.8 0.0
25/02:30am 15.3 10.3 11.0 75 2.3 N 28 43 15 23 1009.9 - 0.0
25/02:00am 15.4 8.8 10.1 70 2.8 N 35 50 19 27 1009.4 - 0.0
25/01:30am 15.3 8.4 8.7 64 3.4 N 35 54 19 29 1009.8 - 0.0
25/01:00am 15.7 9.4 9.6 67 3.2 N 33 52 18 28 1010.3 - 0.0
25/12:32am 16.5 10.3 9.2 62 3.8 N 32 56 17 30 1011.0 - 0.0
25/12:30am 16.3 11.7 9.6 64 3.5 N 24 41 13 22 1011.1 - 0.0
25/12:00am 16.8 12.1 9.1 60 4.0 NNE 24 37 13 20 1011.2 1011.2 0.0
 
Date/Time
CST
Temp
°C
App
Temp
°C
Dew
Point
Rel
Hum
%
Delta-T
°C
Wind Press
QNH
hPa
Press
MSL
hPa
Rain
since 9 am
mm
Dir
 
Spd
km/h
Gust
km/h
Spd
kts
Gust
kts
24/11:30pm 17.0 12.2 8.9 59 4.2 N 24 35 13 19 1012.1 - 0.0
24/11:00pm 16.8 12.2 9.8 63 3.7 NNE 24 35 13 19 1011.8 - 0.0
24/10:30pm 16.6 12.1 10.2 66 3.4 NNE 24 35 13 19 1012.0 - 0.0
24/10:00pm 15.9 11.9 11.7 76 2.3 NE 24 30 13 16 1012.3 - 0.0
24/09:30pm 15.7 11.5 11.1 74 2.5 NNE 24 32 13 17 1012.9 - 0.0
24/09:00pm 15.8 10.9 10.1 69 3.0 NNE 26 37 14 20 1013.0 1013.0 0.0
24/08:30pm 15.7 11.1 9.6 67 3.2 NNE 24 33 13 18 1013.4 - 0.0
24/08:00pm 15.6 11.0 9.7 68 3.1 NE 24 35 13 19 1013.6 - 0.0
24/07:30pm 15.6 10.1 9.0 65 3.4 NNE 28 37 15 20 1013.7 - 0.0
24/07:00pm 15.6 9.6 8.8 64 3.5 NNE 30 41 16 22 1013.7 - 0.0
24/06:30pm 15.5 10.3 8.9 65 3.4 NNE 26 39 14 21 1014.0 - 0.0
24/06:00pm 15.4 10.2 9.0 65 3.3 NNE 26 37 14 20 1014.2 1014.1 0.0
24/05:30pm 15.3 10.4 10.0 70 2.8 NNE 26 35 14 19 1014.4 - 0.0
24/05:00pm 15.5 11.3 9.8 69 3.0 N 22 35 12 19 1014.9 - 0.0
24/04:30pm 15.5 10.9 11.0 74 2.4 N 26 35 14 19 1015.3 - 0.0
24/04:00pm 15.7 10.7 10.8 72 2.6 N 28 39 15 21 1015.5 - 0.0
24/03:30pm 16.6 11.3 11.1 70 3.0 N 30 41 16 22 1015.5 - 0.0
24/03:00pm 16.5 11.8 12.0 75 2.5 N 28 43 15 23 1015.8 1015.7 0.0
24/02:30pm 16.5 11.6 12.7 78 2.1 N 30 41 16 22 1016.3 - 0.0
24/02:00pm 16.7 12.1 12.4 76 2.4 N 28 39 15 21 1016.6 - 0.0
24/01:30pm 17.2 13.4 12.3 73 2.7 N 24 32 13 17 1017.1 - 0.0
24/01:00pm 17.5 13.7 12.5 72 2.8 N 24 37 13 20 1017.6 - 0.0
24/12:30pm 16.9 11.2 11.2 69 3.1 N 32 39 17 21 1018.2 - 0.0
24/12:00pm 17.0 12.6 11.7 71 2.9 N 26 35 14 19 1019.0 1019.0 0.0
24/11:30am 16.9 12.9 11.8 72 2.8 N 24 39 13 21 1019.5 - 0.0
24/11:00am 17.1 13.6 12.2 73 2.7 N 22 35 12 19 1019.9 - 0.0
24/10:30am 16.7 13.3 11.4 71 2.9 N 20 32 11 17 1020.4 - 0.0
24/10:00am 16.4 13.1 11.6 73 2.6 N 20 26 11 14 1020.9 - 0.0
24/09:30am 15.6 12.4 11.3 75 2.3 N 19 28 10 15 1021.2 - 0.0
24/09:00am 15.2 12.8 11.5 78 2.0 NNW 15 22 8 12 1021.4 1021.3 0.2
24/08:30am 14.9 11.9 10.8 76 2.2 NNW 17 24 9 13 1021.5 - 0.2
24/08:00am 14.2 11.2 10.6 79 1.9 N 17 26 9 14 1021.3 - 0.2
24/07:30am 13.7 11.0 10.5 81 1.7 NNW 15 20 8 11 1021.4 - 0.2
24/07:00am 13.8 11.6 10.8 82 1.6 NW 13 19 7 10 1021.6 - 0.2
24/06:30am 14.0 11.9 11.2 83 1.5 NNW 13 19 7 10 1021.2 - 0.2
24/06:00am 14.1 11.4 10.5 79 1.9 NNW 15 20 8 11 1021.1 1021.0 0.2
24/05:30am 14.2 11.4 11.2 82 1.6 NNW 17 24 9 13 1020.8 - 0.2
24/05:00am 14.1 11.7 11.5 84 1.4 NNW 15 20 8 11 1020.8 - 0.2
24/04:30am 14.5 11.9 11.9 84 1.4 NNW 17 22 9 12 1020.8 - 0.2
24/04:00am 14.3 12.0 11.9 85 1.3 NNW 15 20 8 11 1020.6 - 0.2
24/03:30am 14.4 11.7 11.8 84 1.4 NNW 17 22 9 12 1020.9 - 0.2
24/03:00am 14.5 12.6 11.9 84 1.4 NNW 13 17 7 9 1020.9 1020.8 0.2
24/02:30am 14.5 12.8 11.1 80 1.8 NNW 11 17 6 9 1021.0 - 0.2
24/02:00am 14.4 12.6 11.0 80 1.8 NNW 11 15 6 8 1020.9 - 0.2
24/01:30am 14.4 12.6 10.8 79 1.9 NNW 11 15 6 8 1021.1 - 0.2
24/01:00am 14.4 12.6 10.8 79 1.9 NW 11 15 6 8 1021.5 - 0.2
24/12:30am 14.4 12.6 11.0 80 1.8 NW 11 15 6 8 1021.9 - 0.2
24/12:00am 14.9 12.7 10.8 76 2.2 NW 13 20 7 11 1022.3 1022.3 0.2
 
Date/Time
CST
Temp
°C
App
Temp
°C
Dew
Point
Rel
Hum
%
Delta-T
°C
Wind Press
QNH
hPa
Press
MSL
hPa
Rain
since 9 am
mm
Dir
 
Spd
km/h
Gust
km/h
Spd
kts
Gust
kts
23/11:30pm 14.9 12.3 10.8 76 2.2 NW 15 22 8 12 1022.8 - 0.2
23/11:00pm 14.6 12.4 10.8 78 2.0 WNW 13 20 7 11 1022.9 - 0.2
23/10:30pm 14.7 11.7 10.7 77 2.1 WNW 17 20 9 11 1022.9 - 0.2
23/10:00pm 14.6 11.6 10.6 77 2.1 WNW 17 24 9 13 1023.1 - 0.2
23/09:30pm 14.7 11.3 10.5 76 2.2 WNW 19 22 10 12 1023.0 - 0.2
23/09:00pm 14.9 12.8 11.2 78 2.0 NW 13 28 7 15 1023.0 1023.0 0.2
23/08:30pm 15.0 12.0 10.7 75 2.3 WNW 17 24 9 13 1023.2 - 0.2
23/08:00pm 15.0 12.1 10.9 76 2.2 W 17 20 9 11 1023.4 - 0.2
23/07:30pm 15.0 11.6 10.5 74 2.4 W 19 28 10 15 1023.3 - 0.2
23/07:00pm 15.1 11.7 10.6 74 2.4 W 19 24 10 13 1023.1 - 0.2
23/06:30pm 15.1 11.7 10.4 73 2.5 W 19 24 10 13 1022.9 - 0.2

Other Formats:

Comma delimited format used in spreadsheet applications
http://www.bom.gov.au/fwo/IDS60801/IDS60801.95805.axf

JavaScript Object Notation format (JSON) in row-major order
http://www.bom.gov.au/fwo/IDS60801/IDS60801.95805.json